• Join FlightAware (Why Join?)
  • Login
  • US Flag 
11:50AM EST


 

Airport Tracker/Info


-or-


 

Live Flight TrackerFlight Track Log ✈ N373LD ✈ 04-Apr-2014 ✈ KGCK - KMLS

Flight Track Log - Related Links

Times and Time Zones

All times are in EDT time to prevent confusion due to time zone crossing. See the N373LD flight status page for this flight to view local times or setup timezone preferences in your user account.

Time Position Orientation Groundspeed Altitude Reporting Facility
EDT Latitude Longitude Course Direction KTS MPH feet Rate Location/Type
03:55PM 37.9381 -100.7225 North 99 114 3,300  Level Kansas City Center
03:56PM 37.9675 -100.7219 North 112 129 4,400 1,080 Climbing Kansas City Center
03:57PM 38.0111 -100.7283 353° North 129 148 5,600 1,200 Climbing Kansas City Center
03:58PM 38.0469 -100.7514 333° Northwest 144 166 6,900 1,320 Climbing Kansas City Center
03:59PM 38.0883 -100.7736 337° Northwest 144 166 8,400 1,380 Climbing Kansas City Center
04:00PM 38.1244 -100.7922 338° Northwest 144 166 9,800 1,320 Climbing Kansas City Center
04:01PM 38.1681 -100.8153 337° Northwest 145 167 11,200 1,320 Climbing Kansas City Center
04:02PM 38.2056 -100.8353 337° Northwest 150 173 12,500 1,260 Climbing Kansas City Center
04:03PM 38.2500 -100.8594 337° Northwest 151 174 13,800 1,140 Climbing Kansas City Center
04:04PM 38.2892 -100.8800 338° Northwest 156 180 14,900 1,140 Climbing Kansas City Center
04:05PM 38.3364 -100.9056 337° Northwest 158 182 16,200 1,140 Climbing Kansas City Center
04:06PM 38.3769 -100.9272 337° Northwest 161 185 17,300 960 Climbing Kansas City Center
04:08PM 38.4239 -100.9531 337° Northwest 161 185 18,200 900 Climbing Kansas City Center
04:09PM 38.4653 -100.9753 337° Northwest 163 188 19,200 900 Climbing Kansas City Center
04:10PM 38.5072 -100.9972 338° Northwest 166 191 20,100 840 Climbing Kansas City Center
04:10PM 38.5278 -101.0067 340° North 167 192 20,600 1,080 Climbing Denver Center
04:11PM 38.5828 -101.0378 336° Northwest 169 194 21,900 1,020 Climbing Denver Center
04:12PM 38.6250 -101.0611 337° Northwest 170 196 22,800 840 Climbing Denver Center
04:13PM 38.6686 -101.0833 338° Northwest 174 200 23,700 960 Climbing Denver Center
04:14PM 38.7197 -101.1117 337° Northwest 178 205 24,800 900 Climbing Denver Center
04:15PM 38.7636 -101.1372 336° Northwest 178 205 25,600 840 Climbing Denver Center
04:16PM 38.8150 -101.1636 338° Northwest 178 205 26,600 840 Climbing Denver Center
04:17PM 38.8594 -101.1886 336° Northwest 180 207 27,400 660 Climbing Denver Center
04:18PM 38.9128 -101.2164 338° Northwest 184 212 28,000 240 Climbing Denver Center
04:19PM 38.9633 -101.2456 336° Northwest 204 235 28,000  Level Denver Center
04:20PM 39.0283 -101.2808 337° Northwest 226 260 28,000  Level Denver Center
04:21PM 39.0894 -101.3136 337° Northwest 231 266 28,000  Level Denver Center
04:22PM 39.1450 -101.3453 336° Northwest 230 265 28,000  Level Denver Center
04:24PM 39.2011 -101.3747 338° Northwest 230 265 28,000  Level Denver Center
04:25PM 39.2653 -101.4114 336° Northwest 227 261 28,000  Level Denver Center
04:26PM 39.3203 -101.4408 338° Northwest 226 260 28,000  Level Denver Center
04:27PM 39.3842 -101.4761 337° Northwest 225 259 28,000  Level Denver Center
04:28PM 39.4386 -101.5067 337° Northwest 224 258 28,000  Level Denver Center
04:29PM 39.5025 -101.5425 337° Northwest 223 257 28,000  Level Denver Center
04:30PM 39.5569 -101.5722 337° Northwest 223 257 28,000  Level Denver Center
04:31PM 39.6206 -101.6083 336° Northwest 223 257 28,000  Level Denver Center
04:32PM 39.6753 -101.6383 337° Northwest 222 255 28,000  Level Denver Center
04:33PM 39.7303 -101.6697 336° Northwest 223 257 28,000  Level Denver Center
04:34PM 39.7933 -101.7050 337° Northwest 223 257 28,000  Level Denver Center
04:35PM 39.8492 -101.7364 337° Northwest 223 257 28,000  Level Denver Center
04:36PM 39.9144 -101.7722 337° Northwest 226 260 28,000  Level Denver Center
04:37PM 39.9703 -101.8044 336° Northwest 227 261 28,000  Level Denver Center
04:38PM 40.0358 -101.8414 337° Northwest 228 262 28,000  Level Denver Center
04:39PM 40.0906 -101.8728 336° Northwest 228 262 28,000  Level Denver Center
04:40PM 40.1564 -101.9086 337° Northwest 228 262 28,000  Level Denver Center
04:41PM 40.2128 -101.9422 336° Northwest 228 262 28,000  Level Denver Center
04:42PM 40.2686 -101.9733 337° Northwest 229 264 28,000  Level Denver Center
04:43PM 40.3339 -102.0100 337° Northwest 228 262 28,000  Level Denver Center
04:44PM 40.3897 -102.0422 336° Northwest 228 262 28,000  Level Denver Center
04:45PM 40.4556 -102.0789 337° Northwest 229 264 28,000  Level Denver Center
04:46PM 40.5111 -102.1125 335° Northwest 229 264 28,000  Level Denver Center
04:47PM 40.5586 -102.1386 337° Northwest 229 264 28,000  Level Denver Center
04:48PM 40.6336 -102.1819 336° Northwest 229 264 28,000  Level Denver Center
04:49PM 40.6900 -102.2144 336° Northwest 230 265 28,000  Level Denver Center
04:50PM 40.7569 -102.2531 336° Northwest 231 266 28,000  Level Denver Center
04:51PM 40.8128 -102.2861 336° Northwest 231 266 28,000  Level Denver Center
04:52PM 40.8803 -102.3250 336° Northwest 233 268 28,000  Level Denver Center
04:53PM 40.9389 -102.3586 337° Northwest 236 272 28,000  Level Denver Center
04:54PM 41.0053 -102.3975 336° Northwest 236 272 28,000  Level Denver Center
04:55PM 41.0636 -102.4319 336° Northwest 238 274 28,000  Level Denver Center
04:57PM 41.1306 -102.4714 336° Northwest 238 274 28,000  Level Denver Center
04:58PM 41.1886 -102.5047 337° Northwest 238 274 28,000  Level Denver Center
04:59PM 41.2575 -102.5450 336° Northwest 238 274 28,000  Level Denver Center
05:00PM 41.3150 -102.5789 336° Northwest 238 274 28,000  Level Denver Center
05:01PM 41.3783 -102.6167 336° Northwest 236 272 28,000  Level Denver Center
05:02PM 41.4367 -102.6506 336° Northwest 237 273 28,000  Level Denver Center
05:03PM 41.5044 -102.6908 336° Northwest 238 274 28,000  Level Denver Center
05:04PM 41.5636 -102.7244 337° Northwest 238 274 28,000  Level Denver Center
05:05PM 41.6311 -102.7656 336° Northwest 238 274 28,000  Level Denver Center
05:06PM 41.6883 -102.8011 335° Northwest 238 274 28,000  Level Denver Center
05:07PM 41.7542 -102.8397 336° Northwest 233 268 28,000  Level Denver Center
05:08PM 41.8122 -102.8744 336° Northwest 235 270 28,000  Level Denver Center
05:09PM 41.8675 -102.9078 336° Northwest 231 266 28,000  Level Denver Center
05:10PM 41.9356 -102.9486 336° Northwest 237 273 28,000  Level Denver Center
05:11PM 41.9933 -102.9828 336° Northwest 237 273 28,000  Level Denver Center
05:12PM 42.0603 -103.0225 336° Northwest 237 273 28,000  Level Denver Center
05:13PM 42.1194 -103.0581 336° Northwest 241 277 28,000  Level Denver Center
05:14PM 42.1869 -103.1006 335° Northwest 241 277 28,000  Level Denver Center
05:15PM 42.2461 -103.1372 335° Northwest 242 278 28,000  Level Denver Center
05:16PM 42.3147 -103.1769 337° Northwest 242 278 28,000  Level Denver Center
05:17PM 42.3736 -103.2139 335° Northwest 242 278 28,000  Level Denver Center
05:18PM 42.4419 -103.2556 336° Northwest 242 278 28,000  Level Denver Center
05:19PM 42.5008 -103.2919 336° Northwest 242 278 28,000  Level Denver Center
05:20PM 42.5689 -103.3339 336° Northwest 242 278 28,000  Level Denver Center
05:21PM 42.6278 -103.3706 335° Northwest 243 280 28,000  Level Denver Center
05:22PM 42.6961 -103.4111 336° Northwest 241 277 28,000  Level Denver Center
05:23PM 42.7544 -103.4481 335° Northwest 241 277 28,000  Level Denver Center
05:24PM 42.8231 -103.4892 336° Northwest 241 277 28,000  Level Denver Center
05:25PM 42.8817 -103.5269 335° Northwest 243 280 28,000  Level Denver Center
05:26PM 42.9500 -103.5681 336° Northwest 242 278 28,000  Level Denver Center
05:28PM 43.0081 -103.6050 335° Northwest 242 278 28,000  Level Denver Center
05:29PM 43.0764 -103.6475 336° Northwest 242 278 28,000  Level Denver Center
05:30PM 43.1356 -103.6856 335° Northwest 242 278 28,000  Level Denver Center
05:31PM 43.2036 -103.7286 335° Northwest 242 278 28,000  Level Denver Center
05:32PM 43.2628 -103.7636 337° Northwest 242 278 28,000  Level Denver Center
05:33PM 43.3206 -103.8031 334° Northwest 242 278 28,000  Level Denver Center
05:34PM 43.3883 -103.8464 335° Northwest 242 278 28,000  Level Denver Center
05:35PM 43.4450 -103.8833 335° Northwest 241 277 28,000  Level Denver Center
05:36PM 43.5150 -103.9267 336° Northwest 241 277 28,000  Level Denver Center
05:37PM 43.5747 -103.9653 335° Northwest 244 281 28,000  Level Denver Center
05:38PM 43.6456 -104.0106 335° Northwest 247 284 28,000  Level Denver Center
05:39PM 43.7050 -104.0481 335° Northwest 247 284 28,000  Level Denver Center
05:40PM 43.7744 -104.0942 334° Northwest 247 284 28,000  Level Denver Center
05:41PM 43.8333 -104.1308 336° Northwest 247 284 28,000  Level Denver Center
05:42PM 43.9047 -104.1778 335° Northwest 249 287 28,000  Level Denver Center
05:43PM 43.9636 -104.2139 336° Northwest 247 284 28,000  Level Denver Center
05:44PM 44.0333 -104.2592 335° Northwest 247 284 28,000  Level Denver Center
05:45PM 44.0936 -104.2981 335° Northwest 247 284 28,000  Level Denver Center
05:46PM 44.1631 -104.3417 336° Northwest 247 284 28,000  Level Denver Center
05:47PM 44.2228 -104.3828 334° Northwest 248 285 28,000  Level Denver Center
05:48PM 44.2922 -104.4297 334° Northwest 248 285 28,000  Level Denver Center
05:49PM 44.3522 -104.4675 336° Northwest 248 285 28,000  Level Denver Center
05:50PM 44.4211 -104.5125 335° Northwest 248 285 28,000  Level Denver Center
05:51PM 44.4814 -104.5528 335° Northwest 247 284 28,000  Level Denver Center
05:52PM 44.5411 -104.5897 336° Northwest 247 284 28,000  Level Denver Center
05:53PM 44.6106 -104.6361 335° Northwest 247 284 28,000  Level Denver Center
05:54PM 44.6703 -104.6758 335° Northwest 247 284 28,000  Level Denver Center
05:55PM 44.7400 -104.7211 335° Northwest 247 284 28,000  Level Denver Center
05:56PM 44.8053 -104.7669 334° Northwest 248 285 28,000  Level Denver Center
05:58PM 44.8689 -104.8094 335° Northwest 248 285 28,000  Level Denver Center
05:59PM 44.9306 -104.8503 335° Northwest 248 285 28,000  Level Denver Center
06:00PM 44.9925 -104.8925 334° Northwest 247 284 28,000 -60 Level Denver Center
06:01PM 45.0561 -104.9347 335° Northwest 249 287 27,900 -360 Descending Denver Center
06:02PM 45.1339 -104.9881 334° Northwest 255 293 27,300 -480 Descending Denver Center
06:03PM 45.2003 -105.0322 335° Northwest 260 299 27,000 -180 Descending Denver Center
06:04PM 45.2647 -105.0747 335° Northwest 259 298 27,000  Level Salt Lake Center
06:05PM 45.3397 -105.1261 334° Northwest 251 289 27,000  Level Salt Lake Center
06:06PM 45.4011 -105.1686 334° Northwest 251 289 27,000  Level Salt Lake Center
06:07PM 45.4625 -105.2094 335° Northwest 248 285 27,000  Level Salt Lake Center
06:08PM 45.5236 -105.2519 334° Northwest 248 285 27,000  Level Salt Lake Center
06:09PM 45.5842 -105.2947 334° Northwest 247 284 27,000 -120 Level Salt Lake Center
06:10PM 45.6478 -105.3381 335° Northwest 248 285 26,800 -1,020 Descending Salt Lake Center
06:11PM 45.7081 -105.3781 335° Northwest 247 284 25,000 -1,980 Descending Salt Lake Center
06:12PM 45.7800 -105.4281 334° Northwest 240 276 22,800 -1,980 Descending Salt Lake Center
06:13PM 45.8397 -105.4686 335° Northwest 240 276 21,000 -1,800 Descending Salt Lake Center
06:14PM 45.8958 -105.5092 333° Northwest 234 269 19,200 -1,800 Descending Salt Lake Center
06:15PM 45.9519 -105.5472 335° Northwest 230 265 17,400 -1,800 Descending Salt Lake Center